createdAt,value
2017-12-31T00:00:29.403Z,5.20
2017-12-31T00:02:57.042Z,5.93
2017-12-31T00:05:25.294Z,5.40
2017-12-31T00:07:54.374Z,5.33
2017-12-31T00:10:21.966Z,5.53
2017-12-31T00:12:50.493Z,6.40
2017-12-31T00:15:18.913Z,5.80
2017-12-31T00:17:47.164Z,5.03
2017-12-31T00:20:14.800Z,5.23
2017-12-31T00:22:42.368Z,5.50
2017-12-31T00:25:10.003Z,5.30
2017-12-31T00:27:37.534Z,4.73
2017-12-31T00:30:05.167Z,5.73
2017-12-31T00:32:33.598Z,6.03
2017-12-31T00:35:02.400Z,5.60
2017-12-31T00:37:31.657Z,5.50
2017-12-31T00:39:59.804Z,5.23
2017-12-31T00:42:28.366Z,5.20
2017-12-31T00:44:56.019Z,5.03
2017-12-31T00:47:24.493Z,4.50
2017-12-31T00:49:52.110Z,5.00
2017-12-31T00:52:20.656Z,7.43
2017-12-31T00:54:48.215Z,5.50
2017-12-31T00:57:15.845Z,5.73
2017-12-31T00:59:43.405Z,5.50
2017-12-31T01:02:13.805Z,5.30
2017-12-31T01:04:42.376Z,5.57
2017-12-31T01:07:09.991Z,6.30
2017-12-31T01:09:38.546Z,6.37
2017-12-31T01:12:09.356Z,6.07
2017-12-31T01:14:36.970Z,5.23
2017-12-31T01:17:05.312Z,5.87
2017-12-31T01:19:35.517Z,4.83
2017-12-31T01:22:05.389Z,5.70
2017-12-31T01:24:33.946Z,4.83
2017-12-31T01:27:01.495Z,5.00
2017-12-31T01:29:29.115Z,5.03
2017-12-31T01:31:58.658Z,5.67
2017-12-31T01:34:27.063Z,5.90
2017-12-31T01:36:55.425Z,5.10
2017-12-31T01:39:24.776Z,5.03
2017-12-31T01:41:52.357Z,5.80
2017-12-31T01:44:19.923Z,5.30
2017-12-31T01:46:47.458Z,5.20
2017-12-31T01:49:15.833Z,4.80
2017-12-31T01:51:43.363Z,5.20
2017-12-31T01:54:10.894Z,4.47
2017-12-31T01:56:40.055Z,4.60
2017-12-31T01:59:07.595Z,5.10
2017-12-31T02:01:35.179Z,4.90
2017-12-31T02:04:02.742Z,5.33
2017-12-31T02:06:30.306Z,5.30
2017-12-31T02:08:59.755Z,5.50
2017-12-31T02:11:27.337Z,5.40
2017-12-31T02:13:56.047Z,5.30
2017-12-31T02:16:23.630Z,5.40
2017-12-31T02:18:51.986Z,5.20
2017-12-31T02:21:19.553Z,4.80
2017-12-31T02:23:47.706Z,5.00
2017-12-31T02:26:16.398Z,4.63
2017-12-31T02:28:43.987Z,4.50
2017-12-31T02:31:12.334Z,5.23
2017-12-31T02:33:39.877Z,4.70
2017-12-31T02:36:08.667Z,4.67
2017-12-31T02:38:36.249Z,4.30
2017-12-31T02:41:04.971Z,5.23
2017-12-31T02:43:32.551Z,4.67
2017-12-31T02:46:01.108Z,4.73
2017-12-31T02:48:29.671Z,5.30
2017-12-31T02:50:57.214Z,5.00
2017-12-31T02:53:24.804Z,4.80
2017-12-31T02:55:52.351Z,5.10
2017-12-31T02:58:19.942Z,5.00
2017-12-31T03:00:47.479Z,5.10
2017-12-31T03:03:16.231Z,4.70
2017-12-31T03:05:43.783Z,5.27
2017-12-31T03:08:12.302Z,5.07
2017-12-31T03:10:39.839Z,4.80
2017-12-31T03:13:07.378Z,4.63
2017-12-31T03:15:35.714Z,5.60
2017-12-31T03:18:03.257Z,4.50
2017-12-31T03:20:30.835Z,5.23
2017-12-31T03:22:58.370Z,4.43
2017-12-31T03:25:26.878Z,5.83
2017-12-31T03:27:55.831Z,4.73
2017-12-31T03:30:23.422Z,5.00
2017-12-31T03:32:51.759Z,5.47
2017-12-31T03:35:19.624Z,5.00
2017-12-31T03:37:47.927Z,4.50
2017-12-31T03:40:16.897Z,4.40
2017-12-31T03:42:44.667Z,4.97
2017-12-31T03:45:13.048Z,4.83
2017-12-31T03:47:41.391Z,4.50
2017-12-31T03:50:10.372Z,4.67
2017-12-31T03:52:37.915Z,4.90
2017-12-31T03:55:06.300Z,4.37
2017-12-31T03:57:33.830Z,5.03
2017-12-31T04:00:02.161Z,4.87
2017-12-31T04:02:30.895Z,4.47
2017-12-31T04:04:59.027Z,5.40
2017-12-31T04:07:26.572Z,4.43
2017-12-31T04:09:54.941Z,4.93
2017-12-31T04:12:23.214Z,4.40
2017-12-31T04:14:51.732Z,4.80
2017-12-31T04:17:19.352Z,4.57
2017-12-31T04:19:47.776Z,5.00
2017-12-31T04:22:16.158Z,5.07
2017-12-31T04:24:43.741Z,5.27
2017-12-31T04:27:12.056Z,4.70
2017-12-31T04:29:41.558Z,5.93
2017-12-31T04:32:09.772Z,4.53
2017-12-31T04:34:37.345Z,5.10
2017-12-31T04:37:04.874Z,4.70
2017-12-31T04:39:32.475Z,4.43
2017-12-31T04:42:00.020Z,4.67
2017-12-31T04:44:27.553Z,4.50
2017-12-31T04:46:55.906Z,4.53
2017-12-31T04:49:23.435Z,4.40
2017-12-31T04:51:51.020Z,4.10
2017-12-31T04:54:19.277Z,4.17
2017-12-31T04:56:47.611Z,4.20
2017-12-31T04:59:15.160Z,4.50
2017-12-31T05:01:42.726Z,4.50
2017-12-31T05:04:11.563Z,4.93
2017-12-31T05:06:40.117Z,4.23
2017-12-31T05:09:09.098Z,4.30
2017-12-31T05:11:36.679Z,4.17
2017-12-31T05:14:04.219Z,4.43
2017-12-31T05:16:32.334Z,4.37
2017-12-31T05:19:00.667Z,4.57
2017-12-31T05:21:29.204Z,4.53
2017-12-31T05:23:57.678Z,4.10
2017-12-31T05:26:26.067Z,4.57
2017-12-31T05:28:54.170Z,4.80
2017-12-31T05:31:21.754Z,4.60
2017-12-31T05:33:49.807Z,4.50
2017-12-31T05:36:17.384Z,4.30
2017-12-31T05:38:45.551Z,4.27
2017-12-31T05:41:13.140Z,3.80
2017-12-31T05:43:41.819Z,4.30
2017-12-31T05:46:10.345Z,4.80
2017-12-31T05:48:37.905Z,4.33
2017-12-31T05:51:06.114Z,4.43
2017-12-31T05:53:33.647Z,4.60
2017-12-31T05:56:03.162Z,4.80
2017-12-31T05:58:30.901Z,4.50
2017-12-31T06:00:58.429Z,4.23
2017-12-31T06:03:26.003Z,4.90
2017-12-31T06:05:55.012Z,4.67
2017-12-31T06:08:22.603Z,3.73
2017-12-31T06:10:50.180Z,4.10
2017-12-31T06:13:17.723Z,3.97
2017-12-31T06:15:45.992Z,3.87
2017-12-31T06:18:14.331Z,3.70
2017-12-31T06:20:41.875Z,4.10
2017-12-31T06:23:10.391Z,4.97
2017-12-31T06:25:38.267Z,4.23
2017-12-31T06:28:05.844Z,4.30
2017-12-31T06:30:33.393Z,4.20
2017-12-31T06:33:01.799Z,4.10
2017-12-31T06:35:29.347Z,5.13
2017-12-31T06:37:57.699Z,4.70
2017-12-31T06:40:26.008Z,4.53
2017-12-31T06:42:53.588Z,4.10
2017-12-31T06:45:22.764Z,4.00
2017-12-31T06:47:51.251Z,3.87
2017-12-31T06:50:19.619Z,4.03
2017-12-31T06:52:47.198Z,4.10
2017-12-31T06:55:15.666Z,4.50
2017-12-31T06:57:44.004Z,4.43
2017-12-31T07:00:11.554Z,3.70
2017-12-31T07:02:39.655Z,3.83
2017-12-31T07:05:07.179Z,4.10
2017-12-31T07:07:35.515Z,3.80
2017-12-31T07:10:05.812Z,4.33
2017-12-31T07:12:34.162Z,4.43
2017-12-31T07:15:01.687Z,4.63
2017-12-31T07:17:29.282Z,4.00
2017-12-31T07:19:56.855Z,4.13
2017-12-31T07:22:24.454Z,4.03
2017-12-31T07:24:52.811Z,4.57
2017-12-31T07:27:20.438Z,4.43
2017-12-31T07:29:48.918Z,4.27
2017-12-31T07:32:17.395Z,4.20
2017-12-31T07:34:45.895Z,4.07
2017-12-31T07:37:13.422Z,3.90
2017-12-31T07:39:42.711Z,4.17
2017-12-31T07:42:10.841Z,3.13
2017-12-31T07:44:38.398Z,3.57
2017-12-31T07:47:06.737Z,4.20
2017-12-31T07:49:35.120Z,3.80
2017-12-31T07:52:03.764Z,3.80
2017-12-31T07:54:32.577Z,4.23
2017-12-31T07:59:32.855Z,3.83
2017-12-31T08:02:00.458Z,3.47
2017-12-31T08:04:27.991Z,3.80
2017-12-31T08:06:56.291Z,3.70
2017-12-31T08:09:25.163Z,4.00
2017-12-31T08:11:52.741Z,3.97
2017-12-31T08:14:20.955Z,3.87
2017-12-31T08:16:49.312Z,3.30
2017-12-31T08:19:17.852Z,3.50
2017-12-31T08:21:46.098Z,4.10
2017-12-31T08:24:15.152Z,4.10
2017-12-31T08:26:43.314Z,3.47
2017-12-31T08:29:11.649Z,3.70
2017-12-31T08:31:39.903Z,3.57
2017-12-31T08:34:08.250Z,3.37
2017-12-31T08:36:35.835Z,3.70
2017-12-31T08:39:03.419Z,3.47
2017-12-31T08:41:31.739Z,3.20
2017-12-31T08:44:00.475Z,3.20
2017-12-31T08:46:28.014Z,4.20
2017-12-31T08:48:55.606Z,3.53
2017-12-31T08:51:23.130Z,3.77
2017-12-31T08:53:50.708Z,3.33
2017-12-31T08:56:18.231Z,3.60
2017-12-31T08:58:46.227Z,3.50
2017-12-31T09:01:14.308Z,4.10
2017-12-31T09:03:44.579Z,3.30
2017-12-31T09:06:12.835Z,3.47
2017-12-31T09:08:41.225Z,3.80
2017-12-31T09:11:08.763Z,3.37
2017-12-31T09:13:36.585Z,3.00
2017-12-31T09:16:05.061Z,3.17
2017-12-31T09:18:33.435Z,3.23
2017-12-31T09:21:00.969Z,3.90
2017-12-31T09:23:29.179Z,3.30
2017-12-31T09:25:57.484Z,3.67
2017-12-31T09:28:25.391Z,3.63
2017-12-31T09:30:52.980Z,3.17
2017-12-31T09:33:20.561Z,3.50
2017-12-31T09:35:49.628Z,4.07
2017-12-31T09:38:18.366Z,4.33
2017-12-31T09:40:46.299Z,4.50
2017-12-31T09:43:19.563Z,3.80
2017-12-31T09:45:48.266Z,3.27
2017-12-31T09:48:17.319Z,3.20
2017-12-31T09:50:45.795Z,3.57
2017-12-31T09:53:14.194Z,4.63
2017-12-31T09:55:47.263Z,3.10
2017-12-31T09:58:14.853Z,3.10
2017-12-31T10:00:42.472Z,4.00
2017-12-31T10:03:10.867Z,3.37
2017-12-31T10:05:39.258Z,3.47
2017-12-31T10:08:09.727Z,3.37
2017-12-31T10:10:38.072Z,3.63
2017-12-31T10:13:06.985Z,2.80
2017-12-31T10:15:34.536Z,3.63
2017-12-31T10:18:03.175Z,3.70
2017-12-31T10:20:35.853Z,3.47
2017-12-31T10:23:04.247Z,3.30
2017-12-31T10:25:32.604Z,3.63
2017-12-31T10:28:01.584Z,3.57
2017-12-31T10:30:29.158Z,3.53
2017-12-31T10:32:57.605Z,4.07
2017-12-31T10:35:25.220Z,3.50
2017-12-31T10:37:56.396Z,3.30
2017-12-31T10:40:26.224Z,2.90
2017-12-31T10:42:53.763Z,3.70
2017-12-31T10:45:22.025Z,2.97
2017-12-31T10:47:49.581Z,3.47
2017-12-31T10:50:18.931Z,2.93
2017-12-31T10:52:46.475Z,2.90
2017-12-31T10:55:14.829Z,3.43
2017-12-31T10:57:43.370Z,3.20
2017-12-31T11:00:10.951Z,3.83
2017-12-31T11:02:40.142Z,2.90
2017-12-31T11:05:08.499Z,3.30
2017-12-31T11:07:36.812Z,2.40
2017-12-31T11:10:04.983Z,3.30
2017-12-31T11:12:33.463Z,3.17
2017-12-31T11:15:01.048Z,3.50
2017-12-31T11:17:28.583Z,3.57
2017-12-31T11:19:57.110Z,3.00
2017-12-31T11:22:24.648Z,3.10
2017-12-31T11:24:52.224Z,3.20
2017-12-31T11:27:19.789Z,3.00
2017-12-31T11:29:48.180Z,2.80
2017-12-31T11:32:16.859Z,3.53
2017-12-31T11:34:46.966Z,3.20
2017-12-31T11:37:15.991Z,3.40
2017-12-31T11:39:44.339Z,3.40
2017-12-31T11:42:12.090Z,3.40
2017-12-31T11:44:39.680Z,3.23
2017-12-31T11:47:08.413Z,3.60
2017-12-31T11:49:36.628Z,4.43
2017-12-31T11:52:07.783Z,4.00
2017-12-31T11:54:37.012Z,3.80
2017-12-31T11:57:04.659Z,3.60
2017-12-31T11:59:33.914Z,3.80
2017-12-31T12:02:01.835Z,3.00
2017-12-31T12:04:30.425Z,4.07
2017-12-31T12:06:58.008Z,4.27
2017-12-31T12:09:26.192Z,3.43
2017-12-31T12:11:53.812Z,3.27
2017-12-31T12:14:22.255Z,3.20
2017-12-31T12:16:50.728Z,3.50
2017-12-31T12:19:19.196Z,3.97
2017-12-31T12:21:46.775Z,3.90
2017-12-31T12:24:14.315Z,3.57
2017-12-31T12:26:43.514Z,3.73
2017-12-31T12:29:11.114Z,3.37
2017-12-31T12:31:39.450Z,3.93
2017-12-31T12:34:06.979Z,3.20
2017-12-31T12:36:35.372Z,3.67
2017-12-31T12:39:04.540Z,3.80
2017-12-31T12:41:32.081Z,3.83
2017-12-31T12:44:00.909Z,3.70
2017-12-31T12:46:29.019Z,3.77
2017-12-31T12:48:57.132Z,3.33
2017-12-31T12:51:25.483Z,3.20
2017-12-31T12:53:54.012Z,2.90
2017-12-31T12:56:22.324Z,3.50
2017-12-31T12:58:49.907Z,5.87
2017-12-31T13:01:17.438Z,4.47
2017-12-31T13:03:45.028Z,3.90
2017-12-31T13:06:14.236Z,3.53
2017-12-31T13:08:43.530Z,3.67
2017-12-31T13:11:11.078Z,3.50
2017-12-31T13:13:39.813Z,3.03
2017-12-31T13:16:07.350Z,3.40
2017-12-31T13:18:34.993Z,4.17
2017-12-31T13:21:03.728Z,2.90
2017-12-31T13:23:31.331Z,3.30
2017-12-31T13:25:58.868Z,2.90
2017-12-31T13:28:27.087Z,3.10
2017-12-31T13:30:54.753Z,4.10
2017-12-31T13:33:23.163Z,3.80
2017-12-31T13:35:50.743Z,3.60
2017-12-31T13:38:20.293Z,3.40
2017-12-31T13:40:48.869Z,3.83
2017-12-31T13:43:17.864Z,3.43
2017-12-31T13:45:47.433Z,3.87
2017-12-31T13:48:15.006Z,2.83
2017-12-31T13:50:42.629Z,3.30
2017-12-31T13:53:10.169Z,3.20
2017-12-31T13:55:37.758Z,3.17
2017-12-31T13:58:05.296Z,3.37
2017-12-31T14:00:32.872Z,3.40
2017-12-31T14:03:00.446Z,4.20
2017-12-31T14:05:27.983Z,3.27
2017-12-31T14:07:56.369Z,3.33
2017-12-31T14:10:24.767Z,3.70
2017-12-31T14:12:53.145Z,3.90
2017-12-31T14:15:21.521Z,3.47
2017-12-31T14:17:49.674Z,2.80
2017-12-31T14:20:19.011Z,2.90
2017-12-31T14:22:46.601Z,3.60
2017-12-31T14:25:15.177Z,3.67
2017-12-31T14:27:42.719Z,3.67
2017-12-31T14:30:10.295Z,3.40
2017-12-31T14:32:37.922Z,3.60
2017-12-31T14:35:05.569Z,6.77
2017-12-31T14:37:33.899Z,13.77
2017-12-31T14:40:03.513Z,6.20
2017-12-31T14:42:31.723Z,4.33
2017-12-31T14:45:01.056Z,4.10
2017-12-31T14:47:28.595Z,3.80
2017-12-31T14:49:59.177Z,3.10
2017-12-31T14:52:26.758Z,3.47
2017-12-31T14:54:54.387Z,3.47
2017-12-31T14:57:24.482Z,2.50
2017-12-31T14:59:53.829Z,3.73
2017-12-31T15:02:22.667Z,3.70
2017-12-31T15:04:53.360Z,3.17
2017-12-31T15:10:17.886Z,3.13
2017-12-31T15:12:48.400Z,3.20
2017-12-31T15:15:20.794Z,3.27
2017-12-31T15:17:53.289Z,3.20
2017-12-31T15:20:22.204Z,3.00
2017-12-31T15:22:51.384Z,3.20
2017-12-31T15:25:18.991Z,5.07
2017-12-31T15:27:47.335Z,5.20
2017-12-31T15:33:26.904Z,3.97
2017-12-31T15:35:57.323Z,3.57
2017-12-31T15:38:24.885Z,3.50
2017-12-31T15:40:53.450Z,4.23
2017-12-31T15:43:21.849Z,3.90
2017-12-31T15:45:56.885Z,3.77
2017-12-31T15:48:26.574Z,3.63
2017-12-31T15:50:56.432Z,4.37
2017-12-31T15:53:29.404Z,4.27
2017-12-31T15:56:26.414Z,4.37
2017-12-31T15:58:57.497Z,5.80
2017-12-31T16:01:37.161Z,7.73
2017-12-31T16:04:07.009Z,6.57
2017-12-31T16:06:44.714Z,4.90
2017-12-31T16:09:12.360Z,3.67
2017-12-31T16:14:34.076Z,6.03
2017-12-31T16:17:05.076Z,4.03
2017-12-31T16:22:09.056Z,3.70
2017-12-31T16:27:28.545Z,3.90
2017-12-31T16:29:59.591Z,3.70
2017-12-31T16:32:29.358Z,4.53
2017-12-31T16:34:57.694Z,4.00
2017-12-31T16:37:31.607Z,4.63
2017-12-31T16:40:05.415Z,5.07
2017-12-31T16:42:35.330Z,4.73
2017-12-31T16:45:15.494Z,4.10
2017-12-31T16:48:04.441Z,4.23
2017-12-31T16:53:21.723Z,4.40
2017-12-31T16:55:55.111Z,3.73
2017-12-31T16:58:25.303Z,3.80
2017-12-31T17:00:57.402Z,4.10
2017-12-31T17:03:33.936Z,4.07
2017-12-31T17:09:13.853Z,6.30
2017-12-31T17:12:00.576Z,4.87
2017-12-31T17:14:30.155Z,5.60
2017-12-31T17:17:00.279Z,7.30
2017-12-31T17:19:38.878Z,5.33
2017-12-31T17:22:19.491Z,5.20
2017-12-31T17:27:25.347Z,5.50
2017-12-31T17:29:53.862Z,6.20
2017-12-31T17:32:25.687Z,6.80
2017-12-31T17:35:13.592Z,5.20
2017-12-31T17:37:42.692Z,7.43
2017-12-31T17:40:17.574Z,6.47
2017-12-31T17:42:48.206Z,8.40
2017-12-31T17:45:17.280Z,8.40
2017-12-31T17:47:51.383Z,15.50
2017-12-31T17:50:23.415Z,12.50
2017-12-31T17:55:48.247Z,18.80
2017-12-31T17:58:19.100Z,13.43
2017-12-31T18:00:54.991Z,10.20
2017-12-31T18:03:24.231Z,6.83
2017-12-31T18:05:55.031Z,7.17
2017-12-31T18:08:30.097Z,6.27
2017-12-31T18:10:59.577Z,10.87
2017-12-31T18:13:33.117Z,15.23
2017-12-31T18:16:02.045Z,16.83
2017-12-31T18:21:09.559Z,8.73
2017-12-31T18:26:30.268Z,6.00
2017-12-31T18:29:07.965Z,4.73
2017-12-31T18:31:40.199Z,3.47
2017-12-31T18:34:14.622Z,4.00
2017-12-31T18:36:45.864Z,3.80
2017-12-31T18:39:16.215Z,7.57
2017-12-31T18:41:51.014Z,2.80
2017-12-31T18:44:22.227Z,4.13
2017-12-31T18:46:57.681Z,3.50
2017-12-31T18:49:33.785Z,4.40
2017-12-31T18:52:07.274Z,4.83
2017-12-31T18:54:36.460Z,3.60
2017-12-31T18:57:15.316Z,8.40
2017-12-31T18:59:46.174Z,7.43
2017-12-31T19:02:16.894Z,3.30
2017-12-31T19:04:45.652Z,6.43
2017-12-31T19:07:17.677Z,2.80
2017-12-31T19:09:56.443Z,7.30
2017-12-31T19:12:28.054Z,4.70
2017-12-31T19:15:03.597Z,4.30
2017-12-31T19:17:42.744Z,3.57
2017-12-31T19:20:12.463Z,3.37
2017-12-31T19:22:46.066Z,3.03
2017-12-31T19:25:20.431Z,3.07
2017-12-31T19:27:58.735Z,3.07
2017-12-31T19:30:29.403Z,3.07
2017-12-31T19:35:57.259Z,4.10
2017-12-31T19:38:33.794Z,3.70
2017-12-31T19:41:01.352Z,3.13
2017-12-31T19:43:29.486Z,3.00
2017-12-31T19:46:00.572Z,3.53
2017-12-31T19:48:28.960Z,4.83
2017-12-31T19:50:58.695Z,2.93
2017-12-31T19:53:30.390Z,4.00
2017-12-31T19:56:00.875Z,3.83
2017-12-31T19:58:30.856Z,3.30
2017-12-31T20:00:58.607Z,3.33
2017-12-31T20:03:27.904Z,3.63
2017-12-31T20:05:55.496Z,4.07
2017-12-31T20:08:24.697Z,3.53
2017-12-31T20:10:53.942Z,4.10
2017-12-31T20:13:21.564Z,2.80
2017-12-31T20:15:49.898Z,4.00
2017-12-31T20:18:19.083Z,4.33
2017-12-31T20:20:46.656Z,3.40
2017-12-31T20:23:14.228Z,3.13
2017-12-31T20:25:41.818Z,4.10
2017-12-31T20:28:11.444Z,4.57
2017-12-31T20:30:39.831Z,3.40
2017-12-31T20:33:08.754Z,3.20
2017-12-31T20:35:36.322Z,3.17
2017-12-31T20:38:05.535Z,3.17
2017-12-31T20:40:33.157Z,3.27
2017-12-31T20:43:02.651Z,3.73
2017-12-31T20:45:32.081Z,3.83
2017-12-31T20:48:00.840Z,3.50
2017-12-31T20:50:29.747Z,4.03
2017-12-31T20:53:02.071Z,3.40
2017-12-31T20:55:31.088Z,3.80
2017-12-31T20:57:58.666Z,3.87
2017-12-31T21:00:26.549Z,4.00
2017-12-31T21:02:55.246Z,3.63
2017-12-31T21:05:23.079Z,3.60
2017-12-31T21:07:51.257Z,3.90
2017-12-31T21:10:19.599Z,3.40
2017-12-31T21:12:48.040Z,3.90
2017-12-31T21:15:17.373Z,3.90
2017-12-31T21:17:44.959Z,3.63
2017-12-31T21:20:13.355Z,3.80
2017-12-31T21:22:40.938Z,4.33
2017-12-31T21:25:08.521Z,4.50
2017-12-31T21:27:36.838Z,3.73
2017-12-31T21:30:05.007Z,6.97
2017-12-31T21:32:34.570Z,16.00
2017-12-31T21:35:03.675Z,3.97
2017-12-31T21:37:32.780Z,3.43
2017-12-31T21:40:01.160Z,3.50
2017-12-31T21:42:29.501Z,3.30
2017-12-31T21:44:58.027Z,4.10
2017-12-31T21:47:25.617Z,3.77
2017-12-31T21:49:53.196Z,3.60
2017-12-31T21:52:21.581Z,3.83
2017-12-31T21:54:49.952Z,5.17
2017-12-31T21:57:21.007Z,3.97
2017-12-31T21:59:49.388Z,3.53
2017-12-31T22:02:17.003Z,4.20
2017-12-31T22:04:45.399Z,4.10
2017-12-31T22:07:13.751Z,3.80
2017-12-31T22:09:42.158Z,4.73
2017-12-31T22:12:12.530Z,4.00
2017-12-31T22:14:41.677Z,4.07
2017-12-31T22:17:09.255Z,4.33
2017-12-31T22:19:37.758Z,3.90
2017-12-31T22:22:05.335Z,4.10
2017-12-31T22:24:32.900Z,4.67
2017-12-31T22:27:00.430Z,4.63
2017-12-31T22:29:28.801Z,3.70
2017-12-31T22:31:57.281Z,4.60
2017-12-31T22:34:26.768Z,5.47
2017-12-31T22:36:55.278Z,5.67
2017-12-31T22:39:23.849Z,4.83
2017-12-31T22:41:51.438Z,3.93
2017-12-31T22:44:19.016Z,4.70
2017-12-31T22:46:46.593Z,4.40
2017-12-31T22:49:18.496Z,4.30
2017-12-31T22:51:48.702Z,6.37
2017-12-31T22:54:17.886Z,4.67
2017-12-31T22:56:46.423Z,4.90
2017-12-31T22:59:15.445Z,4.47
2017-12-31T23:01:44.005Z,4.63
2017-12-31T23:04:12.266Z,21.30
2017-12-31T23:06:41.146Z,50.30
2017-12-31T23:09:08.780Z,17.60
2017-12-31T23:11:37.251Z,41.10
2017-12-31T23:14:05.648Z,17.10
2017-12-31T23:16:33.273Z,59.27
2017-12-31T23:19:00.882Z,27.83
2017-12-31T23:21:28.506Z,18.83
2017-12-31T23:23:56.942Z,24.20
2017-12-31T23:26:25.795Z,15.90
2017-12-31T23:28:53.367Z,10.87
2017-12-31T23:31:21.000Z,18.70
2017-12-31T23:33:51.324Z,15.47
2017-12-31T23:36:20.216Z,12.43
2017-12-31T23:38:48.726Z,11.20
2017-12-31T23:41:17.068Z,11.13
2017-12-31T23:43:45.384Z,9.80
2017-12-31T23:46:14.165Z,11.13
2017-12-31T23:48:41.745Z,11.53
2017-12-31T23:51:09.376Z,12.67
2017-12-31T23:53:39.523Z,9.63
2017-12-31T23:56:07.371Z,24.30
2017-12-31T23:58:36.513Z,12.20
